Time;durP1;ratioP1;P1;durP2;ratioP2;P2;SDS_P1;SDS_P2;PMS_P1;PMS_P2;Temp;Humidity;BMP_temperature;BMP_pressure;BME280_temperature;BME280_humidity;BME280_pressure;Samples;Min_cycle;Max_cycle;Signal;HPM_P1;HPM_P2
2023/08/25 18:14:51;;;;;;;11.20;9.10;;;;;;;23.93;76.08;99561.28;128686;1279;99902;-81
2023/08/25 18:17:57;;;;;;;10.50;9.40;;;;;;;23.88;76.20;99559.39;128393;1279;99379;-81
2023/08/25 18:21:03;;;;;;;10.20;9.10;;;;;;;23.83;76.41;99557.54;128422;1281;99761;-85
2023/08/25 18:24:09;;;;;;;10.30;8.40;;;;;;;23.77;76.56;99555.87;128357;1285;99399;-80
2023/08/25 18:27:16;;;;;;;10.20;8.60;;;;;;;23.71;76.99;99555.54;128344;1279;100585;-80
2023/08/25 18:30:23;;;;;;;10.30;9.20;;;;;;;23.65;77.25;99553.62;128414;1292;99694;-80
2023/08/25 18:33:29;;;;;;;11.70;10.20;;;;;;;23.61;77.38;99545.08;128324;1283;99503;-80
2023/08/25 18:36:34;;;;;;;10.40;9.20;;;;;;;23.58;77.65;99542.16;128373;1282;99577;-80
2023/08/25 18:39:40;;;;;;;11.20;8.70;;;;;;;23.52;77.86;99533.06;128355;1285;99375;-80
2023/08/25 18:42:46;;;;;;;11.10;9.30;;;;;;;23.47;78.09;99527.30;128403;1286;99852;-79
2023/08/25 18:45:55;;;;;;;13.20;10.20;;;;;;;23.46;78.32;99529.20;128397;1282;99438;-80
2023/08/25 18:49:01;;;;;;;10.60;9.50;;;;;;;23.44;78.55;99523.07;128421;1282;100556;-79
2023/08/25 18:52:07;;;;;;;10.50;9.50;;;;;;;23.41;78.68;99517.92;128382;1285;100533;-79
2023/08/25 18:55:13;;;;;;;9.80;8.80;;;;;;;23.36;78.85;99515.19;128358;1285;99629;-79
2023/08/25 18:58:20;;;;;;;9.90;8.90;;;;;;;23.33;79.18;99512.55;128358;1284;100526;-80
2023/08/25 19:01:25;;;;;;;11.10;9.00;;;;;;;23.31;79.32;99508.98;128413;1284;99344;-82
2023/08/25 19:04:31;;;;;;;10.50;9.50;;;;;;;23.30;79.46;99509.40;128390;1285;99361;-80
2023/08/25 19:07:37;;;;;;;9.50;8.50;;;;;;;23.27;79.66;99508.02;128386;1282;99480;-80
2023/08/25 19:10:43;;;;;;;8.40;7.40;;;;;;;23.25;79.84;99510.00;128329;1284;100451;-81
2023/08/25 19:13:49;;;;;;;10.40;9.10;;;;;;;23.23;80.10;99510.36;128373;1284;99536;-79
2023/08/25 19:16:54;;;;;;;11.20;9.10;;;;;;;23.21;80.32;99509.20;128344;1292;99496;-77
2023/08/25 19:20:00;;;;;;;10.50;9.50;;;;;;;23.18;80.63;99513.09;128276;1284;99455;-78
2023/08/25 19:23:06;;;;;;;11.60;8.80;;;;;;;23.15;80.88;99524.42;128226;1293;100677;-76
2023/08/25 19:26:14;;;;;;;10.20;9.00;;;;;;;23.11;81.01;99524.71;128246;1292;100448;-77
2023/08/25 19:29:19;;;;;;;10.20;9.20;;;;;;;23.11;81.22;99525.58;128288;1292;99375;-78
2023/08/25 19:32:25;;;;;;;10.30;9.30;;;;;;;23.11;81.39;99531.67;128281;1283;100523;-78
2023/08/25 19:35:33;;;;;;;12.30;10.20;;;;;;;23.11;81.50;99529.34;128170;1292;99435;-77
2023/08/25 19:38:38;;;;;;;10.80;9.70;;;;;;;23.10;81.69;99528.18;128423;1283;99372;-77
2023/08/25 19:41:44;;;;;;;10.30;9.30;;;;;;;23.09;82.00;99535.34;128354;1292;99824;-77
2023/08/25 19:44:50;;;;;;;10.60;9.50;;;;;;;23.07;82.13;99540.88;128129;1292;99426;-77
2023/08/25 19:47:56;;;;;;;11.80;10.10;;;;;;;23.06;82.33;99540.33;128285;1282;99467;-78
2023/08/25 19:51:03;;;;;;;11.70;9.90;;;;;;;23.04;82.36;99545.74;128276;1292;99388;-77
2023/08/25 19:54:09;;;;;;;11.80;9.70;;;;;;;23.01;82.69;99535.27;128330;1282;99449;-77
2023/08/25 19:57:14;;;;;;;10.40;9.10;;;;;;;22.99;82.83;99545.25;128242;1284;100526;-77
2023/08/25 20:00:20;;;;;;;10.70;9.60;;;;;;;22.99;82.98;99546.23;128310;1280;100450;-79
2023/08/25 20:03:25;;;;;;;11.20;10.10;;;;;;;22.98;83.12;99549.23;128312;1282;99816;-77
2023/08/25 20:06:31;;;;;;;12.30;11.00;;;;;;;22.97;83.24;99546.42;128273;1282;100470;-78
2023/08/25 20:09:37;;;;;;;12.80;10.40;;;;;;;22.93;83.42;99541.86;128404;1284;100575;-77
2023/08/25 20:12:42;;;;;;;10.90;9.70;;;;;;;22.91;83.58;99538.95;128234;1283;100428;-78
2023/08/25 20:15:48;;;;;;;11.40;10.10;;;;;;;22.91;83.73;99539.50;128153;1286;99842;-77
2023/08/25 20:18:53;;;;;;;13.40;10.70;;;;;;;22.91;83.87;99541.99;128284;1283;99398;-77
2023/08/25 20:21:59;;;;;;;12.80;10.30;;;;;;;22.89;84.04;99546.66;128249;1296;99362;-77
2023/08/25 20:25:06;;;;;;;11.90;9.80;;;;;;;22.87;84.08;99554.09;127901;1285;99461;-77
2023/08/25 20:28:12;;;;;;;9.50;8.60;;;;;;;22.87;84.23;99564.35;128328;1282;100829;-78
2023/08/25 20:31:17;;;;;;;10.20;9.20;;;;;;;22.85;84.35;99566.06;128039;1285;100612;-78
2023/08/25 20:34:23;;;;;;;11.90;10.40;;;;;;;22.84;84.52;99572.80;128243;1292;99443;-78
2023/08/25 20:37:29;;;;;;;12.80;11.00;;;;;;;22.83;84.65;99567.25;128331;1283;100538;-78
2023/08/25 20:40:34;;;;;;;11.70;9.20;;;;;;;22.82;84.69;99566.95;128292;1282;100569;-81
2023/08/25 20:43:40;;;;;;;11.40;9.90;;;;;;;22.81;84.79;99564.05;128305;1292;100495;-78
2023/08/25 20:46:45;;;;;;;12.40;9.40;;;;;;;22.80;84.88;99565.41;128334;1293;99460;-78
2023/08/25 20:49:51;;;;;;;11.70;10.60;;;;;;;22.80;85.01;99572.48;128304;1292;99368;-78
2023/08/25 20:52:57;;;;;;;12.10;10.50;;;;;;;22.80;85.06;99576.88;128350;1283;99381;-78
2023/08/25 20:56:03;;;;;;;12.30;11.00;;;;;;;22.78;85.20;99574.68;128356;1284;99387;-78
2023/08/25 20:59:09;;;;;;;12.50;10.50;;;;;;;22.77;85.29;99574.27;128312;1283;100511;-78
2023/08/25 21:02:15;;;;;;;11.20;10.10;;;;;;;22.76;85.40;99573.13;128383;1292;100553;-78
2023/08/25 21:05:20;;;;;;;10.90;9.90;;;;;;;22.78;85.49;99574.35;128339;1292;99398;-78
2023/08/25 21:08:26;;;;;;;12.40;10.60;;;;;;;22.78;85.51;99572.66;128748;1283;100674;-78
2023/08/25 21:11:31;;;;;;;11.90;10.10;;;;;;;22.76;85.69;99574.94;128363;1285;99499;-78
2023/08/25 21:14:40;;;;;;;11.50;9.40;;;;;;;22.75;85.75;99572.63;128439;1284;99499;-78
2023/08/25 21:17:46;;;;;;;11.50;10.20;;;;;;;22.74;85.95;99573.05;128369;1280;100550;-78
2023/08/25 21:20:53;;;;;;;13.40;10.80;;;;;;;22.75;85.94;99569.91;128248;1292;100562;-78
2023/08/25 21:23:58;;;;;;;11.00;10.00;;;;;;;22.75;86.07;99568.81;128220;1283;100543;-78
2023/08/25 21:27:04;;;;;;;14.10;10.40;;;;;;;22.73;86.17;99567.48;128196;1283;99468;-78
2023/08/25 21:30:12;;;;;;;9.90;9.00;;;;;;;22.71;86.20;99575.57;128241;1283;99470;-78
2023/08/25 21:33:19;;;;;;;11.30;10.10;;;;;;;22.72;86.28;99574.20;128267;1283;99359;-79
2023/08/25 21:36:25;;;;;;;11.40;10.10;;;;;;;22.71;86.34;99575.73;128237;1292;99374;-79
2023/08/25 21:39:30;;;;;;;11.10;10.00;;;;;;;22.71;86.48;99567.83;128239;1283;99802;-79
2023/08/25 21:42:36;;;;;;;11.30;10.00;;;;;;;22.70;86.49;99565.04;128230;1283;99513;-79
2023/08/25 21:45:47;;;;;;;10.50;9.40;;;;;;;22.69;86.51;99557.84;128177;1282;100471;-79
2023/08/25 21:48:52;;;;;;;;;;;;;;;22.67;86.76;99564.58;128301;1283;99734;-79
2023/08/25 21:51:58;;;;;;;11.00;9.50;;;;;;;22.68;86.84;99566.05;128250;1283;99544;-79
2023/08/25 21:55:04;;;;;;;13.70;11.20;;;;;;;22.65;86.91;99566.18;128221;1279;99388;-79
2023/08/25 21:58:09;;;;;;;13.30;10.90;;;;;;;22.63;87.05;99562.55;128205;1283;99381;-79
2023/08/25 22:01:17;;;;;;;10.90;9.30;;;;;;;22.61;87.07;99559.09;128221;1285;100546;-79
2023/08/25 22:04:23;;;;;;;10.50;10.00;;;;;;;22.60;87.20;99557.34;128251;1285;99398;-79
2023/08/25 22:07:28;;;;;;;11.80;10.70;;;;;;;22.60;87.28;99560.27;128355;1292;99465;-79
2023/08/25 22:10:37;;;;;;;12.60;9.90;;;;;;;22.61;87.45;99563.40;128198;1286;99462;-79
2023/08/25 22:13:43;;;;;;;11.00;8.80;;;;;;;22.62;87.50;99562.38;128217;1292;100889;-79
2023/08/25 22:16:49;;;;;;;13.30;11.00;;;;;;;22.60;87.66;99555.44;128250;1292;99321;-78
2023/08/25 22:19:54;;;;;;;13.00;11.70;;;;;;;22.58;87.72;99551.88;128297;1284;99397;-77
2023/08/25 22:23:00;;;;;;;15.20;12.10;;;;;;;22.54;88.38;99551.53;128223;1292;99826;-77
2023/08/25 22:26:06;;;;;;;13.20;11.90;;;;;;;22.46;88.71;99547.61;128162;1284;100511;-77
2023/08/25 22:29:13;;;;;;;12.30;11.00;;;;;;;22.40;88.79;99545.41;128213;1283;99368;-77
2023/08/25 22:32:18;;;;;;;11.40;9.80;;;;;;;22.41;88.68;99544.89;128215;1279;100231;-78
2023/08/25 22:35:24;;;;;;;12.00;10.80;;;;;;;22.45;88.62;99545.48;128271;1282;99452;-78
2023/08/25 22:38:29;;;;;;;14.60;12.10;;;;;;;22.47;88.71;99537.23;128224;1288;100600;-77
2023/08/25 22:41:35;;;;;;;14.30;12.70;;;;;;;22.47;88.98;99532.89;128196;1279;99372;-78
2023/08/25 22:44:40;;;;;;;13.70;12.20;;;;;;;22.42;89.57;99535.38;128196;1283;99596;-78
2023/08/25 22:47:46;;;;;;;12.90;11.20;;;;;;;22.40;89.78;99546.54;128187;1283;99535;-78
2023/08/25 22:50:53;;;;;;;11.60;10.40;;;;;;;22.44;89.53;99553.84;128213;1285;99369;-78
2023/08/25 22:53:58;;;;;;;12.60;10.90;;;;;;;22.50;89.38;99560.30;128229;1279;99381;-78
2023/08/25 22:57:05;;;;;;;11.70;10.10;;;;;;;22.52;89.58;99554.55;128148;1292;99475;-78
2023/08/25 23:00:12;;;;;;;11.10;9.80;;;;;;;22.52;89.29;99546.52;128217;1282;99405;-78
2023/08/25 23:03:18;;;;;;;11.20;9.70;;;;;;;22.52;89.39;99540.47;128246;1282;99365;-77
2023/08/25 23:06:23;;;;;;;11.80;10.10;;;;;;;22.50;89.79;99548.34;128227;1283;99437;-78
2023/08/25 23:09:29;;;;;;;10.70;8.50;;;;;;;22.47;89.71;99540.83;128200;1284;99404;-78
2023/08/25 23:12:34;;;;;;;9.40;8.30;;;;;;;22.46;89.33;99532.50;128167;1282;99368;-78
2023/08/25 23:15:40;;;;;;;9.40;8.40;;;;;;;22.47;89.06;99535.55;128281;1284;99619;-78
2023/08/25 23:18:46;;;;;;;8.70;7.90;;;;;;;22.49;88.96;99526.96;128223;1285;100451;-79
2023/08/25 23:21:51;;;;;;;10.10;8.80;;;;;;;22.52;88.88;99525.63;128207;1285;99475;-78
2023/08/25 23:24:57;;;;;;;8.60;7.80;;;;;;;22.52;88.82;99525.70;128207;1283;100637;-77
2023/08/25 23:28:02;;;;;;;8.20;7.30;;;;;;;22.52;88.91;99520.20;128214;1292;99362;-78
2023/08/25 23:31:08;;;;;;;8.80;8.00;;;;;;;22.51;88.82;99525.40;128227;1292;99474;-78
2023/08/25 23:34:14;;;;;;;11.20;8.60;;;;;;;22.50;89.01;99529.30;128249;1279;99905;-78
2023/08/25 23:37:19;;;;;;;10.10;9.10;;;;;;;22.49;89.54;99544.52;128206;1285;99372;-79
2023/08/25 23:40:25;;;;;;;10.00;8.80;;;;;;;22.39;90.74;99571.38;128209;1280;99445;-79
2023/08/25 23:43:31;;;;;;;11.00;9.00;;;;;;;22.28;90.76;99614.42;128217;1292;99371;-79
2023/08/25 23:46:39;;;;;;;10.40;8.20;;;;;;;22.17;94.40;99630.77;128218;1283;99365;-79
2023/08/25 23:49:45;;;;;;;12.00;8.60;;;;;;;21.92;97.87;99627.00;128260;1284;100566;-78
2023/08/25 23:52:51;;;;;;;9.90;7.40;;;;;;;21.67;99.71;99640.11;128188;1285;100540;-78
2023/08/25 23:55:57;;;;;;;9.70;7.20;;;;;;;21.51;99.57;99677.85;128221;1285;99506;-78
2023/08/25 23:59:02;;;;;;;5.50;4.90;;;;;;;21.39;99.89;99659.10;128513;1278;99366;-78
